createdAt,value
2019-03-21T00:01:17.520Z,9.13
2019-03-21T00:03:47.107Z,9.03
2019-03-21T00:06:36.423Z,10.33
2019-03-21T00:09:07.360Z,10.57
2019-03-21T00:11:55.483Z,10.87
2019-03-21T00:14:32.727Z,9.70
2019-03-21T00:17:02.412Z,9.93
2019-03-21T00:19:30.844Z,9.83
2019-03-21T00:21:59.311Z,9.87
2019-03-21T00:24:28.038Z,10.27
2019-03-21T00:26:56.480Z,9.90
2019-03-21T00:29:24.927Z,10.03
2019-03-21T00:31:53.382Z,9.90
2019-03-21T00:34:21.823Z,10.23
2019-03-21T00:36:50.304Z,9.80
2019-03-21T00:39:18.728Z,10.20
2019-03-21T00:41:47.176Z,9.83
2019-03-21T00:44:18.513Z,10.70
2019-03-21T00:46:45.807Z,10.20
2019-03-21T00:49:14.231Z,9.33
2019-03-21T00:51:42.704Z,10.13
2019-03-21T00:54:11.138Z,9.83
2019-03-21T00:56:39.606Z,10.23
2019-03-21T00:59:08.059Z,10.53
2019-03-21T01:01:36.495Z,9.97
2019-03-21T01:04:05.104Z,10.30
2019-03-21T01:06:34.027Z,9.40
2019-03-21T01:09:02.532Z,10.47
2019-03-21T01:11:30.984Z,10.13
2019-03-21T01:13:59.448Z,9.77
2019-03-21T01:16:27.899Z,10.90
2019-03-21T01:18:56.376Z,10.63
2019-03-21T01:21:24.811Z,9.90
2019-03-21T01:23:53.265Z,9.50
2019-03-21T01:26:21.697Z,9.87
2019-03-21T01:28:50.163Z,11.27
2019-03-21T01:31:18.590Z,10.70
2019-03-21T01:33:47.125Z,10.10
2019-03-21T01:36:15.556Z,10.57
2019-03-21T01:38:44.081Z,10.70
2019-03-21T01:41:15.189Z,11.13
2019-03-21T01:43:43.701Z,11.50
2019-03-21T01:46:17.686Z,10.17
2019-03-21T01:48:46.320Z,10.83
2019-03-21T01:51:14.839Z,11.12
2019-03-21T01:53:43.296Z,11.37
2019-03-21T01:56:11.738Z,10.80
2019-03-21T01:58:40.168Z,10.87
2019-03-21T02:01:08.993Z,11.30
2019-03-21T02:03:37.549Z,10.37
2019-03-21T02:06:06.066Z,11.37
2019-03-21T02:08:35.593Z,11.07
2019-03-21T02:11:04.275Z,11.40
2019-03-21T02:13:32.727Z,12.00
2019-03-21T02:16:01.184Z,11.73
2019-03-21T02:18:29.617Z,11.87
2019-03-21T02:20:58.069Z,11.67
2019-03-21T02:23:26.502Z,10.80
2019-03-21T02:25:54.955Z,11.70
2019-03-21T02:28:23.389Z,12.43
2019-03-21T02:30:54.940Z,13.60
2019-03-21T02:33:34.863Z,11.93
2019-03-21T02:36:06.889Z,12.83
2019-03-21T02:38:35.330Z,12.63
2019-03-21T02:41:10.124Z,11.57
2019-03-21T02:43:38.900Z,12.03
2019-03-21T02:46:07.365Z,12.27
2019-03-21T02:48:35.834Z,10.60
2019-03-21T02:51:05.172Z,11.93
2019-03-21T02:53:34.337Z,10.93
2019-03-21T02:56:03.840Z,11.80
2019-03-21T02:58:32.270Z,11.07
2019-03-21T03:01:00.720Z,11.87
2019-03-21T03:03:29.170Z,11.57
2019-03-21T03:05:57.618Z,12.07
2019-03-21T03:08:26.176Z,12.50
2019-03-21T03:10:56.440Z,12.37
2019-03-21T03:13:25.260Z,12.27
2019-03-21T03:15:53.787Z,12.60
2019-03-21T03:18:25.763Z,11.07
2019-03-21T03:20:54.239Z,12.60
2019-03-21T03:23:22.744Z,12.97
2019-03-21T03:25:51.666Z,12.13
2019-03-21T03:28:38.249Z,13.17
2019-03-21T03:31:06.724Z,11.27
2019-03-21T03:33:35.192Z,12.47
2019-03-21T03:36:04.506Z,13.97
2019-03-21T03:38:33.050Z,12.40
2019-03-21T03:41:10.628Z,12.37
2019-03-21T03:43:39.078Z,12.07
2019-03-21T03:46:07.514Z,12.47
2019-03-21T03:48:35.974Z,12.33
2019-03-21T03:51:04.401Z,12.07
2019-03-21T03:53:32.852Z,12.53
2019-03-21T03:56:01.320Z,12.33
2019-03-21T03:58:32.360Z,12.47
2019-03-21T04:01:01.081Z,12.43
2019-03-21T04:03:29.532Z,12.17
2019-03-21T04:05:58.000Z,13.23
2019-03-21T04:08:26.439Z,13.50
2019-03-21T04:10:56.848Z,14.63
2019-03-21T04:13:25.294Z,13.33
2019-03-21T04:15:54.240Z,13.37
2019-03-21T04:18:24.720Z,13.47
2019-03-21T04:20:58.971Z,13.03
2019-03-21T04:23:27.444Z,13.63
2019-03-21T04:25:59.094Z,12.93
2019-03-21T04:28:27.558Z,13.83
2019-03-21T04:30:56.005Z,13.93
2019-03-21T04:33:24.700Z,13.60
2019-03-21T04:35:53.146Z,14.50
2019-03-21T04:38:21.862Z,15.70
2019-03-21T04:40:50.321Z,13.37
2019-03-21T04:43:18.781Z,15.23
2019-03-21T04:45:47.419Z,14.87
2019-03-21T04:48:15.832Z,15.07
2019-03-21T04:50:44.295Z,14.73
2019-03-21T04:53:12.751Z,14.10
2019-03-21T04:55:41.548Z,13.93
2019-03-21T04:58:10.010Z,13.45
2019-03-21T05:00:47.709Z,15.17
2019-03-21T05:03:21.417Z,14.73
2019-03-21T05:05:49.845Z,13.33
2019-03-21T05:08:18.307Z,13.13
2019-03-21T05:10:46.751Z,13.80
2019-03-21T05:13:15.207Z,13.53
2019-03-21T05:15:48.554Z,14.37
2019-03-21T05:18:26.048Z,15.53
2019-03-21T05:20:54.497Z,13.33
2019-03-21T05:23:22.940Z,13.07
2019-03-21T05:25:51.376Z,14.70
2019-03-21T05:28:19.824Z,13.80
2019-03-21T05:30:57.809Z,14.00
2019-03-21T05:33:26.268Z,13.57
2019-03-21T05:35:54.707Z,13.70
2019-03-21T05:38:25.704Z,12.53
2019-03-21T05:40:54.147Z,13.17
2019-03-21T05:43:31.452Z,13.25
2019-03-21T05:45:59.899Z,12.27
2019-03-21T05:48:28.352Z,12.27
2019-03-21T05:50:56.786Z,12.57
2019-03-21T05:53:25.262Z,11.93
2019-03-21T05:55:53.723Z,12.87
2019-03-21T05:58:22.192Z,14.47
2019-03-21T06:00:53.818Z,13.03
2019-03-21T06:03:25.826Z,12.30
2019-03-21T06:05:57.329Z,12.33
2019-03-21T06:08:28.969Z,12.73
2019-03-21T06:10:57.431Z,12.57
2019-03-21T06:13:25.925Z,13.27
2019-03-21T06:15:54.419Z,13.63
2019-03-21T06:18:41.003Z,13.77
2019-03-21T06:21:12.501Z,13.47
2019-03-21T06:23:55.575Z,13.43
2019-03-21T06:26:30.008Z,12.43
2019-03-21T06:28:58.432Z,12.23
2019-03-21T06:31:26.894Z,12.83
2019-03-21T06:33:55.364Z,12.60
2019-03-21T06:36:23.827Z,13.83
2019-03-21T06:38:52.271Z,12.87
2019-03-21T06:41:20.731Z,12.57
2019-03-21T06:43:49.170Z,13.07
2019-03-21T06:46:17.631Z,13.13
2019-03-21T06:48:46.056Z,13.77
2019-03-21T06:51:14.519Z,14.57
2019-03-21T06:53:42.949Z,15.07
2019-03-21T06:56:11.488Z,13.03
2019-03-21T06:58:39.964Z,12.90
2019-03-21T07:01:08.413Z,13.83
2019-03-21T07:03:36.988Z,14.10
2019-03-21T07:06:05.483Z,13.87
2019-03-21T07:08:34.836Z,14.37
2019-03-21T07:11:04.866Z,13.43
2019-03-21T07:13:33.312Z,15.00
2019-03-21T07:16:01.760Z,13.80
2019-03-21T07:18:30.188Z,13.00
2019-03-21T07:21:00.993Z,13.57
2019-03-21T07:23:28.807Z,13.47
2019-03-21T07:25:57.268Z,12.60
2019-03-21T07:28:25.694Z,15.47
2019-03-21T07:30:54.156Z,13.97
2019-03-21T07:33:22.595Z,14.13
2019-03-21T07:35:51.040Z,14.20
2019-03-21T07:38:19.500Z,14.23
2019-03-21T07:40:47.945Z,15.43
2019-03-21T07:43:16.386Z,14.37
2019-03-21T07:45:44.869Z,14.80
2019-03-21T07:48:13.304Z,112.57
2019-03-21T07:50:41.753Z,15.47
2019-03-21T07:53:10.220Z,16.70
2019-03-21T07:55:38.687Z,16.10
2019-03-21T07:58:07.123Z,16.30
2019-03-21T08:00:35.558Z,15.00
2019-03-21T08:03:04.930Z,17.10
2019-03-21T08:05:40.210Z,16.27
2019-03-21T08:08:03.553Z,17.27
2019-03-21T08:10:31.982Z,15.60
2019-03-21T08:13:00.451Z,16.30
2019-03-21T08:15:28.876Z,17.20
2019-03-21T08:17:57.333Z,17.60
2019-03-21T08:20:25.787Z,19.23
2019-03-21T08:22:54.308Z,18.63
2019-03-21T08:25:22.756Z,19.23
2019-03-21T08:27:51.951Z,19.37
2019-03-21T08:30:29.226Z,20.23
2019-03-21T08:32:57.707Z,18.40
2019-03-21T08:35:26.147Z,19.67
2019-03-21T08:37:54.615Z,19.50
2019-03-21T08:40:23.078Z,20.00
2019-03-21T08:42:51.525Z,22.73
2019-03-21T08:45:19.985Z,20.70
2019-03-21T08:47:48.695Z,22.53
2019-03-21T08:50:17.142Z,22.03
2019-03-21T08:52:45.587Z,22.63
2019-03-21T08:55:14.039Z,20.93
2019-03-21T08:57:42.464Z,19.80
2019-03-21T09:00:15.037Z,20.83
2019-03-21T09:02:43.471Z,23.23
2019-03-21T09:05:12.593Z,22.47
2019-03-21T09:07:41.030Z,23.07
2019-03-21T09:10:11.288Z,22.53
2019-03-21T09:12:42.363Z,21.60
2019-03-21T09:15:10.362Z,22.80
2019-03-21T09:17:38.811Z,21.73
2019-03-21T09:20:08.518Z,22.27
2019-03-21T09:22:37.017Z,23.37
2019-03-21T09:25:07.473Z,22.10
2019-03-21T09:27:35.919Z,21.07
2019-03-21T09:30:14.967Z,23.20
2019-03-21T09:32:43.423Z,22.00
2019-03-21T09:35:12.611Z,22.67
2019-03-21T09:37:41.083Z,22.17
2019-03-21T09:40:11.445Z,21.43
2019-03-21T09:42:39.892Z,22.83
2019-03-21T09:45:08.780Z,22.17
2019-03-21T09:47:37.229Z,23.20
2019-03-21T09:50:07.732Z,22.30
2019-03-21T09:52:36.170Z,21.03
2019-03-21T09:55:07.361Z,20.20
2019-03-21T09:57:35.927Z,20.50
2019-03-21T10:00:09.999Z,18.23
2019-03-21T10:02:38.450Z,17.80
2019-03-21T10:05:07.700Z,17.97
2019-03-21T10:07:36.128Z,17.43
2019-03-21T10:10:08.379Z,14.47
2019-03-21T10:12:36.870Z,16.07
2019-03-21T10:15:06.576Z,17.80
2019-03-21T10:17:35.325Z,16.27
2019-03-21T10:20:07.931Z,14.77
2019-03-21T10:22:36.383Z,14.73
2019-03-21T10:25:06.104Z,14.03
2019-03-21T10:27:35.299Z,14.13
2019-03-21T10:30:06.270Z,14.00
2019-03-21T10:32:35.301Z,12.13
2019-03-21T10:35:04.680Z,12.07
2019-03-21T10:37:33.133Z,10.77
2019-03-21T10:40:01.569Z,12.73
2019-03-21T10:42:30.026Z,11.57
2019-03-21T10:44:58.463Z,13.47
2019-03-21T10:47:26.935Z,12.13
2019-03-21T10:49:55.375Z,11.77
2019-03-21T10:52:23.842Z,12.43
2019-03-21T10:54:52.296Z,12.30
2019-03-21T10:57:20.731Z,11.87
2019-03-21T10:59:49.210Z,10.97
2019-03-21T11:02:17.679Z,11.83
2019-03-21T11:04:46.204Z,12.50
2019-03-21T11:07:13.583Z,13.23
2019-03-21T11:09:42.030Z,13.80
2019-03-21T11:12:10.495Z,13.30
2019-03-21T11:14:39.037Z,12.67
2019-03-21T11:17:07.544Z,13.47
2019-03-21T11:19:35.997Z,12.97
2019-03-21T11:22:06.670Z,13.60
2019-03-21T11:24:35.421Z,13.97
2019-03-21T11:27:03.874Z,13.43
2019-03-21T11:29:32.333Z,14.93
2019-03-21T11:32:00.765Z,22.70
2019-03-21T11:34:29.229Z,13.43
2019-03-21T11:36:57.667Z,13.37
2019-03-21T11:39:26.117Z,14.00
2019-03-21T11:41:54.575Z,13.67
2019-03-21T11:44:23.108Z,13.37
2019-03-21T11:46:51.596Z,11.83
2019-03-21T11:49:20.396Z,13.27
2019-03-21T11:51:48.900Z,11.90
2019-03-21T11:54:17.363Z,13.13
2019-03-21T11:56:45.815Z,13.70
2019-03-21T11:59:14.275Z,12.50
2019-03-21T12:01:42.719Z,13.73
2019-03-21T12:04:11.182Z,11.73
2019-03-21T12:06:39.631Z,13.23
2019-03-21T12:09:08.075Z,13.40
2019-03-21T12:11:36.524Z,14.30
2019-03-21T12:14:05.516Z,13.73
2019-03-21T12:16:33.971Z,14.00
2019-03-21T12:19:02.403Z,14.23
2019-03-21T12:21:30.892Z,13.63
2019-03-21T12:23:59.331Z,14.97
2019-03-21T12:26:27.798Z,14.67
2019-03-21T12:28:56.244Z,14.43
2019-03-21T12:31:24.759Z,14.90
2019-03-21T12:33:53.199Z,14.57
2019-03-21T12:36:21.672Z,14.40
2019-03-21T12:38:50.114Z,13.30
2019-03-21T12:41:18.767Z,14.57
2019-03-21T12:43:47.211Z,13.93
2019-03-21T12:46:15.657Z,14.83
2019-03-21T12:48:44.183Z,13.83
2019-03-21T12:51:12.944Z,14.70
2019-03-21T12:53:41.515Z,16.03
2019-03-21T12:56:09.965Z,14.97
2019-03-21T12:58:38.407Z,13.73
2019-03-21T13:01:06.916Z,14.63
2019-03-21T13:03:35.629Z,16.63
2019-03-21T13:06:04.166Z,15.30
2019-03-21T13:08:33.920Z,15.27
2019-03-21T13:11:02.803Z,16.37
2019-03-21T13:13:31.232Z,14.80
2019-03-21T13:15:59.689Z,13.53
2019-03-21T13:18:28.147Z,14.27
2019-03-21T13:20:56.591Z,14.43
2019-03-21T13:23:25.054Z,14.23
2019-03-21T13:25:53.548Z,14.00
2019-03-21T13:28:22.085Z,15.00
2019-03-21T13:30:50.541Z,14.57
2019-03-21T13:33:18.997Z,16.03
2019-03-21T13:35:47.509Z,22.80
2019-03-21T13:38:15.961Z,17.97
2019-03-21T13:40:44.475Z,18.60
2019-03-21T13:43:12.939Z,16.50
2019-03-21T13:45:41.412Z,17.03
2019-03-21T13:48:09.837Z,16.77
2019-03-21T13:50:38.300Z,15.93
2019-03-21T13:53:18.144Z,17.40
2019-03-21T13:55:36.945Z,17.17
2019-03-21T13:58:05.806Z,16.13
2019-03-21T14:00:34.347Z,17.40
2019-03-21T14:03:02.772Z,17.10
2019-03-21T14:05:31.264Z,17.07
2019-03-21T14:07:59.720Z,16.57
2019-03-21T14:10:28.243Z,16.93
2019-03-21T14:12:56.693Z,18.07
2019-03-21T14:15:25.161Z,17.27
2019-03-21T14:17:53.640Z,16.07
2019-03-21T14:20:22.069Z,18.97
2019-03-21T14:22:50.535Z,18.30
2019-03-21T14:25:18.977Z,17.87
2019-03-21T14:27:47.445Z,17.90
2019-03-21T14:30:17.742Z,19.50
2019-03-21T14:32:46.265Z,17.00
2019-03-21T14:35:14.803Z,18.93
2019-03-21T14:37:43.247Z,17.27
2019-03-21T14:40:13.884Z,16.97
2019-03-21T14:42:42.634Z,17.53
2019-03-21T14:45:15.790Z,18.27
2019-03-21T14:47:44.262Z,18.43
2019-03-21T14:50:14.738Z,19.17
2019-03-21T14:52:43.164Z,18.73
2019-03-21T14:55:13.572Z,18.33
2019-03-21T14:57:42.147Z,19.27
2019-03-21T15:00:13.544Z,20.47
2019-03-21T15:02:41.985Z,18.27
2019-03-21T15:05:10.750Z,18.17
2019-03-21T15:07:39.207Z,18.53
2019-03-21T15:10:10.389Z,18.53
2019-03-21T15:12:38.830Z,18.37
2019-03-21T15:15:09.232Z,18.10
2019-03-21T15:17:37.686Z,18.07
2019-03-21T15:20:08.733Z,18.97
2019-03-21T15:22:37.165Z,17.80
2019-03-21T15:25:07.864Z,18.97
2019-03-21T15:27:36.559Z,19.10
2019-03-21T15:30:12.004Z,17.70
2019-03-21T15:32:41.792Z,20.87
2019-03-21T15:35:11.997Z,20.23
2019-03-21T15:37:40.425Z,18.60
2019-03-21T15:40:11.831Z,20.73
2019-03-21T15:42:40.304Z,20.60
2019-03-21T15:45:22.121Z,20.90
2019-03-21T15:47:44.960Z,19.63
2019-03-21T15:50:27.514Z,20.50
2019-03-21T15:52:56.431Z,19.43
2019-03-21T15:55:24.863Z,20.47
2019-03-21T15:57:53.314Z,20.43
2019-03-21T16:00:41.341Z,20.00
2019-03-21T16:03:10.929Z,18.87
2019-03-21T16:05:39.505Z,20.30
2019-03-21T16:08:09.174Z,21.27
2019-03-21T16:10:37.936Z,20.60
2019-03-21T16:13:06.468Z,19.63
2019-03-21T16:15:35.078Z,19.50
2019-03-21T16:18:03.704Z,19.70
2019-03-21T16:20:32.188Z,19.70
2019-03-21T16:23:00.639Z,20.87
2019-03-21T16:25:29.077Z,22.13
2019-03-21T16:27:57.547Z,21.30
2019-03-21T16:30:25.980Z,21.07
2019-03-21T16:32:54.602Z,20.07
2019-03-21T16:35:23.037Z,21.70
2019-03-21T16:37:51.503Z,22.97
2019-03-21T16:40:19.991Z,21.00
2019-03-21T16:42:48.414Z,21.83
2019-03-21T16:45:16.885Z,22.40
2019-03-21T16:47:45.313Z,21.87
2019-03-21T16:50:16.737Z,21.50
2019-03-21T16:52:45.169Z,22.43
2019-03-21T16:55:14.579Z,21.20
2019-03-21T16:57:43.571Z,21.23
2019-03-21T17:00:18.027Z,21.53
2019-03-21T17:02:47.483Z,21.93
2019-03-21T17:05:15.958Z,20.73
2019-03-21T17:07:44.405Z,21.40
2019-03-21T17:10:17.088Z,21.50
2019-03-21T17:12:45.646Z,21.30
2019-03-21T17:15:14.256Z,21.63
2019-03-21T17:17:42.759Z,21.60
2019-03-21T17:20:12.292Z,20.50
2019-03-21T17:22:40.877Z,22.10
2019-03-21T17:25:09.959Z,21.40
2019-03-21T17:27:38.463Z,22.67
2019-03-21T17:30:09.939Z,22.70
2019-03-21T17:32:38.382Z,22.00
2019-03-21T17:35:07.006Z,22.03
2019-03-21T17:37:37.170Z,23.47
2019-03-21T17:40:08.930Z,38.40
2019-03-21T17:42:37.379Z,33.83
2019-03-21T17:45:18.371Z,25.03
2019-03-21T17:47:46.878Z,26.23
2019-03-21T17:50:17.742Z,22.80
2019-03-21T17:52:46.356Z,22.53
2019-03-21T17:55:14.878Z,20.83
2019-03-21T17:57:43.350Z,22.23
2019-03-21T18:00:14.876Z,22.00
2019-03-21T18:02:43.394Z,23.07
2019-03-21T18:05:13.485Z,22.60
2019-03-21T18:07:41.936Z,21.70
2019-03-21T18:10:16.200Z,23.13
2019-03-21T18:12:44.638Z,22.17
2019-03-21T18:15:13.103Z,22.83
2019-03-21T18:17:41.546Z,23.57
2019-03-21T18:20:10.196Z,22.30
2019-03-21T18:22:38.643Z,24.37
2019-03-21T18:25:07.179Z,22.60
2019-03-21T18:27:36.451Z,23.30
2019-03-21T18:30:07.420Z,22.87
2019-03-21T18:32:36.429Z,25.13
2019-03-21T18:35:07.337Z,23.13
2019-03-21T18:37:36.429Z,24.30
2019-03-21T18:40:06.580Z,24.07
2019-03-21T18:42:35.027Z,25.73
2019-03-21T18:45:04.631Z,27.07
2019-03-21T18:47:33.140Z,26.10
2019-03-21T18:50:01.596Z,26.00
2019-03-21T18:52:30.036Z,26.93
2019-03-21T18:55:06.104Z,28.23
2019-03-21T18:57:28.687Z,39.97
2019-03-21T18:59:57.141Z,30.83
2019-03-21T19:02:25.583Z,25.67
2019-03-21T19:04:54.080Z,27.63
2019-03-21T19:07:22.548Z,25.77
2019-03-21T19:09:51.023Z,26.37
2019-03-21T19:12:19.469Z,27.80
2019-03-21T19:14:48.114Z,26.70
2019-03-21T19:17:16.561Z,27.60
2019-03-21T19:19:45.089Z,27.87
2019-03-21T19:22:13.560Z,26.73
2019-03-21T19:24:42.126Z,28.10
2019-03-21T19:27:10.641Z,27.37
2019-03-21T19:29:39.134Z,29.00
2019-03-21T19:32:07.645Z,28.80
2019-03-21T19:34:36.597Z,28.90
2019-03-21T19:37:05.034Z,30.03
2019-03-21T19:39:33.489Z,30.60
2019-03-21T19:42:01.935Z,31.60
2019-03-21T19:44:30.403Z,33.83
2019-03-21T19:47:01.363Z,31.93
2019-03-21T19:49:29.025Z,33.57
2019-03-21T19:51:57.494Z,34.73
2019-03-21T19:54:25.960Z,38.93
2019-03-21T19:56:54.486Z,36.77
2019-03-21T19:59:22.941Z,35.30
2019-03-21T20:01:51.373Z,33.83
2019-03-21T20:04:19.818Z,33.40
2019-03-21T20:06:48.244Z,34.20
2019-03-21T20:09:16.723Z,36.83
2019-03-21T20:11:45.167Z,36.93
2019-03-21T20:14:13.656Z,35.27
2019-03-21T20:16:42.129Z,32.47
2019-03-21T20:19:10.573Z,33.40
2019-03-21T20:21:47.776Z,31.27
2019-03-21T20:24:09.196Z,31.90
2019-03-21T20:26:37.626Z,33.80
2019-03-21T20:29:06.719Z,33.17
2019-03-21T20:31:35.179Z,33.33
2019-03-21T20:34:03.640Z,31.30
2019-03-21T20:36:32.124Z,32.93
2019-03-21T20:39:00.572Z,31.70
2019-03-21T20:41:29.027Z,32.27
2019-03-21T20:43:57.467Z,34.40
2019-03-21T20:46:25.917Z,30.80
2019-03-21T20:48:53.351Z,33.70
2019-03-21T20:51:21.790Z,32.80
2019-03-21T20:53:50.256Z,32.77
2019-03-21T20:56:18.688Z,31.20
2019-03-21T20:58:47.257Z,31.60
2019-03-21T21:01:15.741Z,30.20
2019-03-21T21:03:44.169Z,32.97
2019-03-21T21:06:12.635Z,30.73
2019-03-21T21:08:41.065Z,30.17
2019-03-21T21:11:09.680Z,29.97
2019-03-21T21:13:38.126Z,29.40
2019-03-21T21:16:06.882Z,29.27
2019-03-21T21:18:35.406Z,32.00
2019-03-21T21:21:03.905Z,32.60
2019-03-21T21:23:32.332Z,31.87
2019-03-21T21:26:05.453Z,31.97
2019-03-21T21:28:30.941Z,34.00
2019-03-21T21:30:59.443Z,33.73
2019-03-21T21:33:27.872Z,36.40
2019-03-21T21:35:56.351Z,37.47
2019-03-21T21:38:24.779Z,35.00
2019-03-21T21:40:53.258Z,35.93
2019-03-21T21:43:23.205Z,35.80
2019-03-21T21:45:51.890Z,34.77
2019-03-21T21:48:20.481Z,36.13
2019-03-21T21:50:49.404Z,35.90
2019-03-21T21:53:18.010Z,38.30
2019-03-21T21:55:46.673Z,35.45
2019-03-21T21:58:15.423Z,35.73
2019-03-21T22:00:44.193Z,34.70
2019-03-21T22:03:12.941Z,36.33
2019-03-21T22:05:41.430Z,35.83
2019-03-21T22:08:09.893Z,34.53
2019-03-21T22:10:38.431Z,33.33
2019-03-21T22:13:06.933Z,34.23
2019-03-21T22:15:35.380Z,32.47
2019-03-21T22:18:03.829Z,31.07
2019-03-21T22:20:32.281Z,34.23
2019-03-21T22:23:00.726Z,32.97
2019-03-21T22:25:29.181Z,34.27
2019-03-21T22:27:57.686Z,34.33
2019-03-21T22:30:26.126Z,35.70
2019-03-21T22:32:54.569Z,33.80
2019-03-21T22:35:22.998Z,34.70
2019-03-21T22:37:51.452Z,37.83
2019-03-21T22:40:19.919Z,37.53
2019-03-21T22:42:48.537Z,39.63
2019-03-21T22:45:18.218Z,37.77
2019-03-21T22:47:46.908Z,36.57
2019-03-21T22:50:16.271Z,34.33
2019-03-21T22:52:45.465Z,37.50
2019-03-21T22:55:14.258Z,34.17
2019-03-21T22:57:42.935Z,39.50
2019-03-21T23:00:14.497Z,41.53
2019-03-21T23:02:42.947Z,38.97
2019-03-21T23:05:11.632Z,35.50
2019-03-21T23:07:40.095Z,37.23
2019-03-21T23:10:09.568Z,37.80
2019-03-21T23:12:38.065Z,41.80
2019-03-21T23:15:09.460Z,39.47
2019-03-21T23:17:38.672Z,36.90
2019-03-21T23:20:14.998Z,38.63
2019-03-21T23:22:43.702Z,38.97
2019-03-21T23:25:16.130Z,35.77
2019-03-21T23:27:43.723Z,38.40
2019-03-21T23:30:14.933Z,39.40
2019-03-21T23:32:43.486Z,37.70
2019-03-21T23:35:11.976Z,41.17
2019-03-21T23:37:40.448Z,38.20
2019-03-21T23:40:13.156Z,37.30
2019-03-21T23:42:41.664Z,37.13
2019-03-21T23:45:11.302Z,35.20
2019-03-21T23:47:39.779Z,35.37
2019-03-21T23:50:10.731Z,36.20
2019-03-21T23:52:39.290Z,37.63
2019-03-21T23:55:08.873Z,34.57
2019-03-21T23:57:37.447Z,37.37
